Terminal Aerodrome Forecast
Issued by NWS Cleveland, OH

Home | Current Version | Previous Version | Graphics & Text | Print | Product List | Glossary On
Versions: 1 2 3 4 5 6 7 8 9 10 11 12 13 14 15 16
000
FTUS41 KCLE 081100
TAFYNG
TAF
KYNG 081120Z 0812/0912 21008KT P6SM SCT006 OVC012
      TEMPO 0812/0815 5SM BR OVC006
     FM081600 21010KT 4SM -TSRA BR SCT006 OVC012CB
      TEMPO 0816/0819 2SM TSRA BR OVC006CB
     FM081900 22014G22KT P6SM BKN035
     FM082300 25008KT P6SM VCTS SCT025 OVC035CB
     FM090300 26009KT P6SM SCT100 BKN250=

USA.gov is the U.S. government's official web portal to all federal, state and local government web resources and services.